createdAt,value
2018-11-29T00:00:16.542Z,-2.1
2018-11-29T00:01:16.426Z,-2
2018-11-29T00:02:16.296Z,-2
2018-11-29T00:03:16.194Z,-2
2018-11-29T00:04:16.102Z,-2
2018-11-29T00:05:15.998Z,-2.1
2018-11-29T00:06:15.871Z,-2.1
2018-11-29T00:07:16.178Z,-2.1
2018-11-29T00:08:16.054Z,-2.1
2018-11-29T00:09:15.931Z,-2.2
2018-11-29T00:10:15.834Z,-2.1
2018-11-29T00:11:15.724Z,-2.2
2018-11-29T00:12:15.596Z,-2.2
2018-11-29T00:13:15.483Z,-2.2
2018-11-29T00:14:15.351Z,-2.2
2018-11-29T00:15:15.224Z,-2.2
2018-11-29T00:16:15.121Z,-2.2
2018-11-29T00:17:15.424Z,-2.2
2018-11-29T00:18:15.304Z,-2.2
2018-11-29T00:19:15.191Z,-2.2
2018-11-29T00:20:25.512Z,-2.1
2018-11-29T00:21:25.407Z,-2.1
2018-11-29T00:22:25.288Z,-2.1
2018-11-29T00:23:25.184Z,-2.2
2018-11-29T00:24:25.108Z,-2.2
2018-11-29T00:25:24.988Z,-2.2
2018-11-29T00:26:24.871Z,-2.1
2018-11-29T00:27:25.156Z,-2.1
2018-11-29T00:28:25.046Z,-2.1
2018-11-29T00:29:24.932Z,-2.1
2018-11-29T00:30:24.809Z,-2.1
2018-11-29T00:31:24.694Z,-2.2
2018-11-29T00:32:24.575Z,-2.2
2018-11-29T00:33:24.450Z,-2.2
2018-11-29T00:34:24.352Z,-2.2
2018-11-29T00:35:24.242Z,-2.2
2018-11-29T00:36:24.151Z,-2.2
2018-11-29T00:37:24.435Z,-2.2
2018-11-29T00:38:24.317Z,-2.2
2018-11-29T00:39:24.197Z,-2.2
2018-11-29T00:40:24.085Z,-2.2
2018-11-29T00:41:24.003Z,-2.1
2018-11-29T00:42:23.873Z,-2.2
2018-11-29T00:43:23.747Z,-2.2
2018-11-29T00:44:23.619Z,-2.1
2018-11-29T00:45:23.503Z,-2.2
2018-11-29T00:46:23.401Z,-2.2
2018-11-29T00:47:23.698Z,-2.2
2018-11-29T00:48:23.584Z,-2.2
2018-11-29T00:49:23.459Z,-2.2
2018-11-29T00:50:23.349Z,-2.2
2018-11-29T00:51:23.266Z,-2.2
2018-11-29T00:52:23.186Z,-2.2
2018-11-29T00:53:23.071Z,-2.2
2018-11-29T00:54:22.943Z,-2.2
2018-11-29T00:55:22.823Z,-2.3
2018-11-29T00:56:22.697Z,-2.3
2018-11-29T00:57:23.019Z,-2.3
2018-11-29T00:58:22.922Z,-2.3
2018-11-29T00:59:22.807Z,-2.3
2018-11-29T01:00:22.700Z,-2.3
2018-11-29T01:01:22.605Z,-2.2
2018-11-29T01:02:22.513Z,-2.2
2018-11-29T01:03:22.367Z,-2.2
2018-11-29T01:04:22.239Z,-2.2
2018-11-29T01:05:22.124Z,-2.3
2018-11-29T01:06:22.013Z,-2.2
2018-11-29T01:07:22.303Z,-2.2
2018-11-29T01:08:22.172Z,-2.2
2018-11-29T01:09:22.033Z,-2.2
2018-11-29T01:10:21.915Z,-2.2
2018-11-29T01:11:21.791Z,-2.2
2018-11-29T01:12:21.659Z,-2.3
2018-11-29T01:13:21.587Z,-2.3
2018-11-29T01:14:21.453Z,-2.2
2018-11-29T01:15:21.332Z,-2.3
2018-11-29T01:16:21.210Z,-2.2
2018-11-29T01:17:21.517Z,-2.2
2018-11-29T01:18:21.404Z,-2.2
2018-11-29T01:19:21.273Z,-2.2
2018-11-29T01:20:21.158Z,-2.2
2018-11-29T01:21:21.039Z,-2.2
2018-11-29T01:22:20.905Z,-2.2
2018-11-29T01:23:20.803Z,-2.2
2018-11-29T01:24:20.684Z,-2.2
2018-11-29T01:25:20.573Z,-2.2
2018-11-29T01:26:20.449Z,-2.3
2018-11-29T01:27:20.740Z,-2.3
2018-11-29T01:28:20.611Z,-2.3
2018-11-29T01:29:20.514Z,-2.3
2018-11-29T01:37:18.850Z,-1.7
2018-11-29T01:38:18.733Z,-1.7
2018-11-29T01:39:18.631Z,-1.8
2018-11-29T01:40:18.519Z,-1.8
2018-11-29T01:41:18.430Z,-1.8
2018-11-29T01:42:18.324Z,-1.9
2018-11-29T01:43:18.204Z,-2
2018-11-29T01:44:18.111Z,-2.1
2018-11-29T01:45:18.013Z,-2.1
2018-11-29T01:46:17.890Z,-2.1
2018-11-29T01:47:18.178Z,-2.1
2018-11-29T01:48:18.059Z,-2.1
2018-11-29T01:49:17.956Z,-2.1
2018-11-29T01:50:17.839Z,-2.1
2018-11-29T01:51:17.730Z,-2.1
2018-11-29T01:52:17.614Z,-2.1
2018-11-29T01:53:17.518Z,-2.1
2018-11-29T01:54:17.414Z,-2.2
2018-11-29T01:55:17.289Z,-2.2
2018-11-29T01:56:17.168Z,-2.2
2018-11-29T01:57:17.441Z,-2.2
2018-11-29T01:58:17.303Z,-2.2
2018-11-29T01:59:17.196Z,-2.2
2018-11-29T02:00:17.072Z,-2.2
2018-11-29T02:01:16.957Z,-2.2
2018-11-29T02:02:16.837Z,-2.2
2018-11-29T02:03:16.729Z,-2.2
2018-11-29T02:04:16.637Z,-2.2
2018-11-29T02:05:16.518Z,-2.2
2018-11-29T02:06:16.407Z,-2.2
2018-11-29T02:07:16.704Z,-2.3
2018-11-29T02:08:16.589Z,-2.2
2018-11-29T02:09:16.493Z,-2.3
2018-11-29T02:10:16.372Z,-2.2
2018-11-29T02:11:16.249Z,-2.3
2018-11-29T02:12:16.135Z,-2.2
2018-11-29T02:13:16.015Z,-2.2
2018-11-29T02:14:15.919Z,-2.2
2018-11-29T02:15:15.839Z,-2.2
2018-11-29T02:16:15.726Z,-2.2
2018-11-29T02:17:16.033Z,-2.2
2018-11-29T02:18:15.909Z,-2.2
2018-11-29T02:19:15.814Z,-2.2
2018-11-29T02:20:15.687Z,-2.3
2018-11-29T02:21:15.571Z,-2.3
2018-11-29T02:22:15.455Z,-2.3
2018-11-29T02:23:15.337Z,-2.3
2018-11-29T02:24:15.233Z,-2.3
2018-11-29T02:25:15.105Z,-2.3
2018-11-29T02:26:14.976Z,-2.3
2018-11-29T02:27:15.241Z,-2.3
2018-11-29T02:28:15.120Z,-2.3
2018-11-29T02:29:15.029Z,-2.3
2018-11-29T02:30:14.923Z,-2.3
2018-11-29T02:31:14.852Z,-2.3
2018-11-29T02:32:14.747Z,-2.3
2018-11-29T02:33:14.632Z,-2.3
2018-11-29T02:34:14.523Z,-2.3
2018-11-29T02:35:14.421Z,-2.3
2018-11-29T02:36:14.299Z,-2.2
2018-11-29T02:37:14.616Z,-2.2
2018-11-29T02:38:14.490Z,-2.2
2018-11-29T02:47:12.610Z,-1.6
2018-11-29T02:48:12.483Z,-1.6
2018-11-29T02:49:12.367Z,-1.6
2018-11-29T02:50:12.290Z,-1.6
2018-11-29T02:51:12.165Z,-1.7
2018-11-29T02:52:12.043Z,-1.7
2018-11-29T02:53:11.909Z,-1.7
2018-11-29T02:54:11.841Z,-1.8
2018-11-29T02:55:11.782Z,-1.8
2018-11-29T02:56:11.695Z,-1.8
2018-11-29T02:57:11.975Z,-1.9
2018-11-29T02:58:11.852Z,-2
2018-11-29T02:59:11.735Z,-2
2018-11-29T03:00:11.687Z,-2
2018-11-29T03:01:11.571Z,-2
2018-11-29T03:02:11.464Z,-2
2018-11-29T03:03:11.349Z,-2
2018-11-29T03:04:11.247Z,-2
2018-11-29T03:05:11.183Z,-2.1
2018-11-29T03:06:11.085Z,-2
2018-11-29T03:07:11.383Z,-2.1
2018-11-29T03:08:11.271Z,-2.1
2018-11-29T03:09:11.163Z,-2.2
2018-11-29T03:10:11.044Z,-2.2
2018-11-29T03:11:10.968Z,-2.1
2018-11-29T03:12:10.861Z,-2.2
2018-11-29T03:13:10.737Z,-2.2
2018-11-29T03:14:10.632Z,-2.2
2018-11-29T03:15:10.496Z,-2.2
2018-11-29T03:16:10.396Z,-2.2
2018-11-29T03:17:10.721Z,-2.3
2018-11-29T03:18:10.623Z,-2.2
2018-11-29T03:19:10.506Z,-2.2
2018-11-29T03:20:10.523Z,-2.3
2018-11-29T03:21:10.439Z,-2.2
2018-11-29T03:22:10.345Z,-2.2
2018-11-29T03:23:10.238Z,-2.2
2018-11-29T03:24:10.116Z,-2.2
2018-11-29T03:25:10.011Z,-2.2
2018-11-29T03:26:09.894Z,-2.2
2018-11-29T03:27:10.241Z,-2.2
2018-11-29T03:28:10.133Z,-2.2
2018-11-29T03:29:10.028Z,-2.2
2018-11-29T03:30:09.930Z,-2.1
2018-11-29T03:31:09.840Z,-2.1
2018-11-29T03:32:09.770Z,-2.1
2018-11-29T03:33:09.683Z,-2.1
2018-11-29T03:34:09.595Z,-2.1
2018-11-29T03:35:09.500Z,-2.2
2018-11-29T03:36:09.375Z,-2.2
2018-11-29T03:37:09.700Z,-2.2
2018-11-29T03:38:09.609Z,-2.2
2018-11-29T03:39:09.494Z,-2.2
2018-11-29T03:40:09.369Z,-2.2
2018-11-29T03:41:09.251Z,-2.2
2018-11-29T03:42:09.138Z,-2.2
2018-11-29T03:43:09.048Z,-2.1
2018-11-29T03:44:08.954Z,-2.1
2018-11-29T03:45:08.834Z,-2
2018-11-29T03:46:08.732Z,-2
2018-11-29T03:47:09.065Z,-1.9
2018-11-29T03:48:08.978Z,-1.9
2018-11-29T03:49:08.864Z,-1.8
2018-11-29T03:50:08.743Z,-1.8
2018-11-29T03:51:08.636Z,-1.8
2018-11-29T03:52:08.509Z,-1.8
2018-11-29T03:53:08.431Z,-1.8
2018-11-29T03:54:08.343Z,-1.9
2018-11-29T03:55:08.231Z,-1.8
2018-11-29T03:56:08.103Z,-1.8
2018-11-29T03:57:08.388Z,-1.8
2018-11-29T03:58:08.288Z,-1.8
2018-11-29T03:59:08.165Z,-1.7
2018-11-29T04:00:08.041Z,-1.7
2018-11-29T04:01:07.939Z,-1.7
2018-11-29T04:02:07.819Z,-1.7
2018-11-29T04:03:07.712Z,-1.6
2018-11-29T04:04:07.612Z,-1.6
2018-11-29T04:05:07.511Z,-1.6
2018-11-29T04:06:07.391Z,-1.5
2018-11-29T04:07:07.702Z,-1.5
2018-11-29T04:08:07.605Z,-1.5
2018-11-29T04:09:07.472Z,-1.5
2018-11-29T04:10:07.380Z,-1.5
2018-11-29T04:11:07.309Z,-1.5
2018-11-29T04:12:08.546Z,-1.5
2018-11-29T04:13:08.474Z,-1.5
2018-11-29T04:14:08.366Z,-1.4
2018-11-29T04:15:08.303Z,-1.4
2018-11-29T04:16:08.185Z,-1.4
2018-11-29T04:17:08.477Z,-1.4
2018-11-29T04:18:08.358Z,-1.4
2018-11-29T04:19:08.278Z,-1.3
2018-11-29T04:20:08.139Z,-1.3
2018-11-29T04:21:08.017Z,-1.3
2018-11-29T04:22:07.883Z,-1.3
2018-11-29T04:23:07.778Z,-1.2
2018-11-29T04:24:07.677Z,-1.2
2018-11-29T04:25:07.561Z,-1.2
2018-11-29T04:26:07.444Z,-1.2
2018-11-29T04:27:07.803Z,-1.2
2018-11-29T04:28:07.682Z,-1.2
2018-11-29T04:29:07.586Z,-1.2
2018-11-29T04:30:07.484Z,-1.2
2018-11-29T04:31:07.364Z,-1.2
2018-11-29T04:32:07.281Z,-1.2
2018-11-29T04:33:07.179Z,-1.2
2018-11-29T04:34:07.078Z,-1.2
2018-11-29T04:35:06.979Z,-1.2
2018-11-29T04:36:06.888Z,-1.2
2018-11-29T04:37:07.176Z,-1.2
2018-11-29T04:38:07.057Z,-1.1
2018-11-29T04:39:06.942Z,-1.1
2018-11-29T04:40:06.820Z,-1.2
2018-11-29T04:41:06.706Z,-1.1
2018-11-29T04:42:06.572Z,-1.1
2018-11-29T04:43:06.462Z,-1.1
2018-11-29T04:44:06.341Z,-1
2018-11-29T04:45:06.239Z,-1
2018-11-29T04:46:06.124Z,-1
2018-11-29T04:47:06.440Z,-1
2018-11-29T04:48:10.664Z,-1
2018-11-29T04:49:10.608Z,-1
2018-11-29T04:50:10.528Z,-1
2018-11-29T04:51:10.494Z,-1
2018-11-29T04:52:10.394Z,-1
2018-11-29T04:53:10.282Z,-1
2018-11-29T04:54:10.179Z,-1
2018-11-29T04:55:10.072Z,-1
2018-11-29T04:56:09.976Z,-1
2018-11-29T04:57:10.270Z,-1
2018-11-29T04:58:10.151Z,-1
2018-11-29T04:59:10.042Z,-1
2018-11-29T05:01:09.658Z,-0.8
2018-11-29T05:07:08.642Z,-0.3
2018-11-29T05:08:08.536Z,-0.3
2018-11-29T05:09:08.410Z,-0.3
2018-11-29T05:10:08.308Z,-0.3
2018-11-29T05:11:08.187Z,-0.3
2018-11-29T05:12:08.064Z,-0.3
2018-11-29T05:13:07.953Z,-0.3
2018-11-29T05:14:07.831Z,-0.4
2018-11-29T05:15:07.722Z,-0.4
2018-11-29T05:16:07.615Z,-0.4
2018-11-29T05:17:07.928Z,-0.5
2018-11-29T05:18:07.829Z,-0.5
2018-11-29T05:19:07.720Z,-0.5
2018-11-29T05:20:07.620Z,-0.5
2018-11-29T05:21:07.532Z,-0.5
2018-11-29T05:22:07.421Z,-0.5
2018-11-29T05:23:07.315Z,-0.5
2018-11-29T05:24:07.220Z,-0.6
2018-11-29T05:25:07.163Z,-0.6
2018-11-29T05:26:07.061Z,-0.6
2018-11-29T05:27:07.353Z,-0.6
2018-11-29T05:28:07.243Z,-0.7
2018-11-29T05:29:07.112Z,-0.6
2018-11-29T05:30:07.014Z,-0.7
2018-11-29T05:31:06.910Z,-0.7
2018-11-29T05:32:07.459Z,-0.7
2018-11-29T05:33:07.332Z,-0.7
2018-11-29T05:34:07.195Z,-0.7
2018-11-29T05:35:07.078Z,-0.7
2018-11-29T05:36:06.948Z,-0.7
2018-11-29T05:37:07.251Z,-0.6
2018-11-29T05:38:07.114Z,-0.6
2018-11-29T05:39:06.998Z,-0.6
2018-11-29T05:40:06.892Z,-0.6
2018-11-29T05:41:06.756Z,-0.6
2018-11-29T05:42:06.624Z,-0.6
2018-11-29T05:43:06.520Z,-0.6
2018-11-29T05:44:06.398Z,-0.6
2018-11-29T05:45:06.302Z,-0.6
2018-11-29T05:46:06.181Z,-0.6
2018-11-29T05:47:06.468Z,-0.6
2018-11-29T05:48:06.365Z,-0.6
2018-11-29T05:49:06.249Z,-0.6
2018-11-29T05:50:06.127Z,-0.5
2018-11-29T05:51:06.008Z,-0.5
2018-11-29T05:52:05.962Z,-0.6
2018-11-29T05:53:05.847Z,-0.5
2018-11-29T05:54:05.725Z,-0.5
2018-11-29T05:55:05.596Z,-0.5
2018-11-29T05:56:05.488Z,-0.5
2018-11-29T05:57:05.775Z,-0.5
2018-11-29T05:58:05.691Z,-0.5
2018-11-29T05:59:05.564Z,-0.5
2018-11-29T06:00:05.449Z,-0.5
2018-11-29T06:01:05.353Z,-0.5
2018-11-29T06:02:05.220Z,-0.5
2018-11-29T06:03:05.109Z,-0.5
2018-11-29T06:04:04.999Z,-0.5
2018-11-29T06:05:04.893Z,-0.5
2018-11-29T06:06:04.790Z,-0.5
2018-11-29T06:07:05.072Z,-0.4
2018-11-29T06:08:04.983Z,-0.4
2018-11-29T06:09:04.879Z,-0.4
2018-11-29T06:10:04.764Z,-0.3
2018-11-29T06:17:03.433Z,0.2
2018-11-29T06:18:03.303Z,0.3
2018-11-29T06:19:03.230Z,0.2
2018-11-29T06:20:03.115Z,0.2
2018-11-29T06:21:03.005Z,0.1
2018-11-29T06:22:02.895Z,0.2
2018-11-29T06:23:02.785Z,0.1
2018-11-29T06:24:02.669Z,0.2
2018-11-29T06:25:02.566Z,0.1
2018-11-29T06:26:02.507Z,0.1
2018-11-29T06:27:02.803Z,0.1
2018-11-29T06:28:02.669Z,0
2018-11-29T06:29:02.601Z,0
2018-11-29T06:30:02.507Z,0
2018-11-29T06:31:02.395Z,-0.1
2018-11-29T06:32:02.273Z,-0.1
2018-11-29T06:33:02.146Z,-0.2
2018-11-29T06:34:02.043Z,-0.2
2018-11-29T06:35:01.939Z,-0.2
2018-11-29T06:36:02.717Z,-0.2
2018-11-29T06:37:03.067Z,-0.3
2018-11-29T06:38:02.965Z,-0.3
2018-11-29T06:39:02.857Z,-0.4
2018-11-29T06:40:02.745Z,-0.4
2018-11-29T06:41:02.643Z,-0.4
2018-11-29T06:42:02.537Z,-0.5
2018-11-29T06:43:02.411Z,-0.5
2018-11-29T06:44:02.299Z,-0.5
2018-11-29T06:45:02.167Z,-0.6
2018-11-29T06:46:02.070Z,-0.6
2018-11-29T06:47:02.369Z,-0.6
2018-11-29T06:48:02.274Z,-0.6
2018-11-29T06:49:02.151Z,-0.6
2018-11-29T06:50:02.031Z,-0.7
2018-11-29T06:51:01.927Z,-0.7
2018-11-29T06:52:01.827Z,-0.6
2018-11-29T06:53:01.724Z,-0.6
2018-11-29T06:54:01.624Z,-0.7
2018-11-29T06:55:01.516Z,-0.6
2018-11-29T06:56:01.431Z,-0.6
2018-11-29T06:57:01.745Z,-0.6
2018-11-29T06:58:01.621Z,-0.6
2018-11-29T06:59:01.503Z,-0.6
2018-11-29T07:00:01.391Z,-0.6
2018-11-29T07:01:01.298Z,-0.6
2018-11-29T07:02:01.173Z,-0.6
2018-11-29T07:03:01.065Z,-0.5
2018-11-29T07:04:00.975Z,-0.5
2018-11-29T07:05:00.853Z,-0.6
2018-11-29T07:06:00.757Z,-0.5
2018-11-29T07:07:01.051Z,-0.5
2018-11-29T07:08:00.937Z,-0.5
2018-11-29T07:09:00.825Z,-0.5
2018-11-29T07:10:00.712Z,-0.5
2018-11-29T07:11:00.600Z,-0.5
2018-11-29T07:12:00.470Z,-0.5
2018-11-29T07:13:00.347Z,-0.5
2018-11-29T07:14:00.243Z,-0.5
2018-11-29T07:15:00.150Z,-0.4
2018-11-29T07:16:00.049Z,-0.4
2018-11-29T07:17:00.383Z,-0.4
2018-11-29T07:18:00.284Z,-0.4
2018-11-29T07:19:00.194Z,-0.4
2018-11-29T07:21:59.522Z,0
2018-11-29T07:22:59.393Z,0
2018-11-29T07:23:59.274Z,0.1
2018-11-29T07:25:58.907Z,0.3
2018-11-29T07:26:59.227Z,0.4
2018-11-29T07:27:59.099Z,0.4
2018-11-29T07:28:58.974Z,0.3
2018-11-29T07:29:58.854Z,0.3
2018-11-29T07:30:58.756Z,0.3
2018-11-29T07:31:58.634Z,0.3
2018-11-29T07:32:58.516Z,0.2
2018-11-29T07:33:58.410Z,0.2
2018-11-29T07:34:58.300Z,0.2
2018-11-29T07:35:58.195Z,0.1
2018-11-29T07:36:58.516Z,0.1
2018-11-29T07:37:58.422Z,0.1
2018-11-29T07:38:58.310Z,0.1
2018-11-29T07:39:58.200Z,0.1
2018-11-29T07:40:58.111Z,0.2
2018-11-29T07:42:57.728Z,0.3
2018-11-29T07:43:57.623Z,0.4
2018-11-29T07:44:57.516Z,0.5
2018-11-29T07:45:57.419Z,0.6
2018-11-29T07:46:57.753Z,0.6
2018-11-29T07:47:57.622Z,0.6
2018-11-29T07:48:57.493Z,0.5
2018-11-29T07:49:57.377Z,0.6
2018-11-29T07:50:57.273Z,0.6
2018-11-29T07:51:57.157Z,0.6
2018-11-29T07:52:57.044Z,0.5
2018-11-29T07:53:56.948Z,0.5
2018-11-29T07:54:56.822Z,0.5
2018-11-29T07:55:56.701Z,0.4
2018-11-29T07:56:56.982Z,0.4
2018-11-29T07:57:56.869Z,0.4
2018-11-29T07:58:56.746Z,0.4
2018-11-29T07:59:56.646Z,0.4
2018-11-29T08:01:56.294Z,0.6
2018-11-29T08:02:56.190Z,0.7
2018-11-29T08:03:56.087Z,0.8
2018-11-29T08:04:55.986Z,0.8
2018-11-29T08:05:55.884Z,0.9
2018-11-29T08:06:56.199Z,0.9
2018-11-29T08:07:56.096Z,1
2018-11-29T08:08:55.971Z,1
2018-11-29T08:09:55.875Z,1
2018-11-29T08:10:55.758Z,1
2018-11-29T08:11:55.666Z,1
2018-11-29T08:12:55.550Z,0.9
2018-11-29T08:13:55.438Z,1
2018-11-29T08:14:55.326Z,1
2018-11-29T08:15:55.194Z,1
2018-11-29T08:16:55.502Z,1
2018-11-29T08:17:55.394Z,1
2018-11-29T08:18:55.282Z,0.9
2018-11-29T08:19:55.248Z,0.9
2018-11-29T08:20:55.146Z,0.9
2018-11-29T08:21:55.024Z,0.9
2018-11-29T08:22:54.937Z,1
2018-11-29T08:23:54.818Z,1.1
2018-11-29T08:24:54.711Z,1.1
2018-11-29T08:25:54.742Z,1.2
2018-11-29T08:26:55.060Z,1.2
2018-11-29T08:27:54.963Z,1.3
2018-11-29T08:28:54.836Z,1.4
2018-11-29T08:29:54.704Z,1.4
2018-11-29T08:30:54.595Z,1.4
2018-11-29T08:31:54.484Z,1.5
2018-11-29T08:32:54.380Z,1.5
2018-11-29T08:33:54.270Z,1.5
2018-11-29T08:34:54.150Z,1.5
2018-11-29T08:35:54.046Z,1.5
2018-11-29T08:36:54.357Z,1.5
2018-11-29T08:37:54.261Z,1.5
2018-11-29T08:38:54.157Z,1.6
2018-11-29T08:39:54.039Z,1.6
2018-11-29T08:40:53.906Z,1.6
2018-11-29T08:41:53.794Z,1.5
2018-11-29T08:42:53.696Z,1.5
2018-11-29T08:43:53.587Z,1.5
2018-11-29T08:44:53.472Z,1.4
2018-11-29T08:45:53.379Z,1.3
2018-11-29T08:46:53.686Z,1.3
2018-11-29T08:47:53.583Z,1.3
2018-11-29T08:48:53.467Z,1.4
2018-11-29T08:49:53.362Z,1.3
2018-11-29T08:50:53.262Z,1.3
2018-11-29T08:51:53.156Z,1.3
2018-11-29T08:52:53.045Z,1.2
2018-11-29T08:53:52.991Z,1.2
2018-11-29T08:54:52.876Z,1.2
2018-11-29T08:55:52.756Z,1.2
2018-11-29T08:56:53.048Z,1.3
2018-11-29T08:57:52.934Z,1.2
2018-11-29T08:58:52.830Z,1.2
2018-11-29T08:59:52.722Z,1.3
2018-11-29T09:00:52.609Z,1.4
2018-11-29T09:01:52.497Z,1.4
2018-11-29T09:02:52.383Z,1.4
2018-11-29T09:03:52.242Z,1.4
2018-11-29T09:04:52.128Z,1.4
2018-11-29T09:05:52.054Z,1.3
2018-11-29T09:06:52.377Z,1.3
2018-11-29T09:07:52.278Z,1.3
2018-11-29T09:08:52.170Z,1.3
2018-11-29T09:09:52.072Z,1.3
2018-11-29T09:10:51.969Z,1.3
2018-11-29T09:11:51.857Z,1.3
2018-11-29T09:12:51.738Z,1.3
2018-11-29T09:13:51.644Z,1.4
2018-11-29T09:14:51.539Z,1.4
2018-11-29T09:15:51.444Z,1.4
2018-11-29T09:16:51.834Z,1.4
2018-11-29T09:17:51.809Z,1.4
2018-11-29T09:18:51.710Z,1.4
2018-11-29T09:19:51.591Z,1.5
2018-11-29T09:20:51.500Z,1.5
2018-11-29T09:21:51.393Z,1.5
2018-11-29T09:22:51.282Z,1.4
2018-11-29T09:23:51.171Z,1.4
2018-11-29T09:24:51.073Z,1.5
2018-11-29T09:25:51.003Z,1.5
2018-11-29T09:26:51.333Z,1.5
2018-11-29T09:27:51.215Z,1.4
2018-11-29T09:28:51.095Z,1.5
2018-11-29T09:29:50.961Z,1.6
2018-11-29T09:30:50.865Z,1.6
2018-11-29T09:31:50.769Z,1.7
2018-11-29T09:32:50.667Z,1.8
2018-11-29T09:33:50.625Z,1.9
2018-11-29T09:34:50.539Z,1.9
2018-11-29T09:35:50.545Z,2
2018-11-29T09:36:51.829Z,2
2018-11-29T09:37:51.717Z,2.1
2018-11-29T09:38:51.623Z,2.1
2018-11-29T09:39:51.505Z,2.1
2018-11-29T09:40:51.396Z,2.2
2018-11-29T09:41:51.288Z,2.2
2018-11-29T09:42:51.175Z,2.1
2018-11-29T09:43:51.056Z,2.2
2018-11-29T09:44:51.011Z,2.3
2018-11-29T09:45:50.898Z,2.3
2018-11-29T09:46:51.214Z,2.3
2018-11-29T09:47:51.105Z,2.3
2018-11-29T09:48:51.025Z,2.3
2018-11-29T09:49:50.944Z,2.4
2018-11-29T09:50:50.860Z,2.4
2018-11-29T09:51:50.763Z,2.4
2018-11-29T09:52:50.649Z,2.5
2018-11-29T09:53:50.536Z,2.5
2018-11-29T09:54:50.415Z,2.6
2018-11-29T09:55:50.330Z,2.6
2018-11-29T09:56:50.647Z,2.7
2018-11-29T09:57:50.549Z,2.7
2018-11-29T09:58:50.420Z,2.8
2018-11-29T09:59:50.303Z,2.8
2018-11-29T10:00:50.206Z,2.9
2018-11-29T10:01:50.102Z,3
2018-11-29T10:02:49.998Z,3
2018-11-29T10:03:49.899Z,3
2018-11-29T10:04:49.788Z,3
2018-11-29T10:05:49.718Z,3
2018-11-29T10:06:50.036Z,3
2018-11-29T10:07:49.919Z,3
2018-11-29T10:08:49.802Z,3
2018-11-29T10:09:49.694Z,3
2018-11-29T10:10:49.608Z,3
2018-11-29T10:11:49.510Z,3
2018-11-29T10:12:49.401Z,3
2018-11-29T10:13:49.296Z,3
2018-11-29T10:14:49.171Z,3
2018-11-29T10:15:49.088Z,3
2018-11-29T10:16:49.411Z,2.9
2018-11-29T10:17:49.302Z,3
2018-11-29T10:18:49.197Z,3
2018-11-29T10:19:49.091Z,3.1
2018-11-29T10:20:48.964Z,3
2018-11-29T10:21:48.867Z,3
2018-11-29T10:22:48.740Z,3.1
2018-11-29T10:23:48.622Z,3
2018-11-29T10:24:48.512Z,3
2018-11-29T10:25:48.412Z,3
2018-11-29T10:26:48.766Z,3
2018-11-29T10:27:48.658Z,3
2018-11-29T10:28:48.662Z,3
2018-11-29T10:29:48.542Z,3
2018-11-29T10:30:48.418Z,3
2018-11-29T10:31:48.294Z,3
2018-11-29T10:32:48.182Z,3
2018-11-29T10:33:48.071Z,2.9
2018-11-29T10:34:47.964Z,2.9
2018-11-29T10:35:47.846Z,2.9
2018-11-29T10:36:48.141Z,2.9
2018-11-29T10:37:48.054Z,2.9
2018-11-29T10:38:47.928Z,3
2018-11-29T10:39:47.823Z,3
2018-11-29T10:40:47.727Z,3
2018-11-29T10:41:47.646Z,2.9
2018-11-29T10:42:47.548Z,2.9
2018-11-29T10:43:47.458Z,3
2018-11-29T10:44:47.340Z,3.1
2018-11-29T10:45:47.237Z,3.1
2018-11-29T10:46:47.569Z,3.2
2018-11-29T10:47:53.245Z,3.2
2018-11-29T10:48:53.173Z,3.2
2018-11-29T10:49:53.072Z,3.2
2018-11-29T10:50:52.949Z,3.2
2018-11-29T10:51:52.839Z,3.3
2018-11-29T10:52:52.719Z,3.4
2018-11-29T10:53:52.631Z,3.4
2018-11-29T10:54:52.564Z,3.3
2018-11-29T10:55:52.456Z,3.4
2018-11-29T10:56:52.845Z,3.4
2018-11-29T10:57:52.748Z,3.5
2018-11-29T10:58:52.655Z,3.6
2018-11-29T10:59:52.623Z,3.6
2018-11-29T11:00:52.509Z,3.8
2018-11-29T11:01:52.405Z,3.7
2018-11-29T11:02:52.302Z,3.8
2018-11-29T11:03:52.219Z,3.7
2018-11-29T11:04:52.118Z,3.7
2018-11-29T11:05:52.015Z,3.7
2018-11-29T11:06:52.327Z,3.7
2018-11-29T11:07:52.211Z,3.7
2018-11-29T11:08:52.111Z,3.7
2018-11-29T11:09:51.995Z,3.6
2018-11-29T11:10:51.884Z,3.5
2018-11-29T11:11:51.761Z,3.5
2018-11-29T11:12:51.659Z,3.5
2018-11-29T11:13:51.554Z,3.5
2018-11-29T11:14:51.527Z,3.4
2018-11-29T11:15:51.402Z,3.4
2018-11-29T11:16:51.711Z,3.3
2018-11-29T11:17:51.591Z,3.3
2018-11-29T11:18:51.504Z,3.2
2018-11-29T11:19:51.397Z,3.1
2018-11-29T11:20:51.301Z,3.1
2018-11-29T11:21:51.197Z,3.1
2018-11-29T11:22:51.087Z,3.1
2018-11-29T11:23:51.003Z,3.1
2018-11-29T11:24:50.953Z,3.1
2018-11-29T11:25:50.865Z,3.1
2018-11-29T11:26:51.197Z,3.1
2018-11-29T11:27:51.089Z,3
2018-11-29T11:28:50.997Z,3
2018-11-29T11:29:50.931Z,3
2018-11-29T11:30:50.824Z,3
2018-11-29T11:31:50.717Z,3.1
2018-11-29T11:32:50.685Z,3
2018-11-29T11:33:50.601Z,3
2018-11-29T11:34:50.484Z,3
2018-11-29T11:35:50.375Z,3
2018-11-29T11:36:50.715Z,3
2018-11-29T11:37:50.607Z,2.9
2018-11-29T11:38:50.641Z,3
2018-11-29T11:39:50.535Z,2.9
2018-11-29T11:40:50.424Z,2.9
2018-11-29T11:41:50.393Z,2.9
2018-11-29T11:42:50.288Z,2.9
2018-11-29T11:43:50.185Z,2.9
2018-11-29T11:44:50.074Z,2.8
2018-11-29T11:45:49.984Z,2.8
2018-11-29T11:46:50.296Z,2.9
2018-11-29T11:47:50.193Z,2.9
2018-11-29T11:48:50.097Z,3
2018-11-29T11:49:50.003Z,3
2018-11-29T11:50:49.909Z,3
2018-11-29T11:51:49.821Z,3
2018-11-29T11:52:49.757Z,3
2018-11-29T11:53:49.670Z,3
2018-11-29T11:54:49.565Z,3
2018-11-29T11:55:54.666Z,3
2018-11-29T11:56:55.436Z,3
2018-11-29T11:57:55.305Z,3
2018-11-29T11:58:55.196Z,3
2018-11-29T11:59:55.069Z,3
2018-11-29T12:00:54.964Z,3.1
2018-11-29T12:01:54.863Z,3.1
2018-11-29T12:02:54.747Z,3.1
2018-11-29T12:03:54.654Z,3.1
2018-11-29T12:04:54.534Z,3
2018-11-29T12:05:54.414Z,3
2018-11-29T12:06:54.715Z,3
2018-11-29T12:07:54.597Z,3
2018-11-29T12:08:54.515Z,3.1
2018-11-29T12:09:54.443Z,3.2
2018-11-29T12:10:54.327Z,3.2
2018-11-29T12:11:54.224Z,3.3
2018-11-29T12:12:54.128Z,3.3
2018-11-29T12:13:54.040Z,3.4
2018-11-29T12:14:53.928Z,3.4
2018-11-29T12:15:53.796Z,3.5
2018-11-29T12:16:54.104Z,3.6
2018-11-29T12:17:53.971Z,3.6
2018-11-29T12:18:53.878Z,3.7
2018-11-29T12:19:53.769Z,3.7
2018-11-29T12:20:54.688Z,3.7
2018-11-29T12:21:54.592Z,3.8
2018-11-29T12:22:54.493Z,3.8
2018-11-29T12:23:54.412Z,3.8
2018-11-29T12:24:54.307Z,3.8
2018-11-29T12:25:54.226Z,3.8
2018-11-29T12:26:54.558Z,3.8
2018-11-29T12:27:54.447Z,3.9
2018-11-29T12:28:54.383Z,4
2018-11-29T12:29:54.284Z,4
2018-11-29T12:30:54.185Z,4
2018-11-29T12:31:54.064Z,4
2018-11-29T12:32:53.930Z,3.8
2018-11-29T12:33:53.852Z,3.8
2018-11-29T12:34:53.738Z,3.8
2018-11-29T12:35:53.660Z,3.8
2018-11-29T12:36:53.979Z,3.8
2018-11-29T12:37:53.916Z,3.7
2018-11-29T12:38:53.848Z,3.7
2018-11-29T12:39:53.735Z,3.7
2018-11-29T12:40:53.693Z,3.7
2018-11-29T12:41:53.590Z,3.7
2018-11-29T12:42:53.478Z,3.7
2018-11-29T12:43:53.397Z,3.6
2018-11-29T12:44:53.284Z,3.5
2018-11-29T12:45:53.177Z,3.5
2018-11-29T12:46:53.494Z,3.5
2018-11-29T12:47:53.408Z,3.6
2018-11-29T12:48:53.322Z,3.6
2018-11-29T12:49:53.208Z,3.6
2018-11-29T12:50:53.130Z,3.6
2018-11-29T12:51:53.061Z,3.6
2018-11-29T12:52:52.957Z,3.6
2018-11-29T12:53:52.870Z,3.5
2018-11-29T12:54:52.857Z,3.5
2018-11-29T12:55:52.778Z,3.5
2018-11-29T12:56:53.103Z,3.5
2018-11-29T13:00:05.902Z,3.5
2018-11-29T13:01:01.235Z,3.5
2018-11-29T13:03:56.079Z,3.5
2018-11-29T13:06:50.930Z,3.7
2018-11-29T13:09:45.778Z,3.7
2018-11-29T13:12:40.622Z,3.6
2018-11-29T13:15:35.552Z,3.6
2018-11-29T13:18:30.342Z,3.6
2018-11-29T13:21:25.165Z,3.6
2018-11-29T13:24:20.006Z,3.7
2018-11-29T13:27:14.830Z,3.6
2018-11-29T13:30:09.682Z,3.6
2018-11-29T13:33:04.512Z,3.5
2018-11-29T13:35:59.341Z,3.6
2018-11-29T13:38:54.324Z,3.6
2018-11-29T13:41:49.009Z,3.6
2018-11-29T13:44:43.859Z,3.6
2018-11-29T13:47:38.689Z,3.6
2018-11-29T13:50:33.527Z,3.6
2018-11-29T13:53:28.393Z,3.6
2018-11-29T13:56:23.233Z,3.6
2018-11-29T13:59:18.088Z,3.6
2018-11-29T14:02:12.930Z,3.6
2018-11-29T14:05:07.790Z,3.5
2018-11-29T14:08:02.623Z,3.6
2018-11-29T14:10:57.441Z,3.6
2018-11-29T14:13:52.278Z,3.5
2018-11-29T14:16:47.074Z,3.6
2018-11-29T14:19:41.911Z,3.5
2018-11-29T14:22:36.695Z,3.5
2018-11-29T14:25:31.558Z,3.4
2018-11-29T14:28:26.337Z,3.4
2018-11-29T14:31:21.102Z,3.3
2018-11-29T14:34:15.950Z,3.3
2018-11-29T14:37:10.747Z,3.3
2018-11-29T14:40:05.555Z,3.2
2018-11-29T14:43:00.365Z,3.2
2018-11-29T14:45:55.163Z,3.1
2018-11-29T14:48:49.974Z,3.2
2018-11-29T14:51:48.448Z,3.1
2018-11-29T14:54:39.579Z,3
2018-11-29T14:57:34.383Z,3
2018-11-29T15:00:29.157Z,2.9
2018-11-29T15:03:23.900Z,2.9
2018-11-29T15:06:18.662Z,2.9
2018-11-29T15:09:13.429Z,2.8
2018-11-29T15:12:08.195Z,2.8
2018-11-29T15:15:02.953Z,2.8
2018-11-29T15:17:57.707Z,2.8
2018-11-29T15:20:52.475Z,2.8
2018-11-29T15:23:47.209Z,2.7
2018-11-29T15:26:41.971Z,2.6
2018-11-29T15:29:36.711Z,2.6
2018-11-29T15:32:31.530Z,2.6
2018-11-29T15:35:26.419Z,2.5
2018-11-29T15:38:20.933Z,2.5
2018-11-29T15:41:18.644Z,2.5
2018-11-29T15:44:10.352Z,2.5
2018-11-29T15:47:05.060Z,2.4
2018-11-29T15:49:59.777Z,2.4
2018-11-29T15:52:54.500Z,2.4
2018-11-29T15:55:49.224Z,2.3
2018-11-29T15:58:43.948Z,2.3
2018-11-29T16:01:38.688Z,2.3
2018-11-29T16:04:33.434Z,2.2
2018-11-29T16:07:28.184Z,2.2
2018-11-29T16:10:22.895Z,2.2
2018-11-29T16:16:12.525Z,2.2
2018-11-29T16:19:07.488Z,2.1
2018-11-29T16:24:56.484Z,2.1
2018-11-29T16:27:51.212Z,2.1
2018-11-29T16:30:45.906Z,2
2018-11-29T16:33:40.619Z,1.9
2018-11-29T16:36:35.312Z,1.9
2018-11-29T16:39:30.034Z,1.9